createdAt,value
2019-04-22T00:00:32.801Z,40.19
2019-04-22T00:02:26.488Z,40.97
2019-04-22T00:04:42.355Z,40.85
2019-04-22T00:06:51.737Z,41.13
2019-04-22T00:10:56.117Z,41.02
2019-04-22T00:14:47.982Z,41.04
2019-04-22T00:16:53.621Z,41.12
2019-04-22T00:19:13.265Z,41.34
2019-04-22T00:20:54.270Z,41.13
2019-04-22T00:22:44.888Z,41.39
2019-04-22T00:24:47.912Z,40.8
2019-04-22T00:26:51.303Z,41.04
2019-04-22T00:28:52.178Z,41.09
2019-04-22T00:30:51.050Z,41.18
2019-04-22T00:32:44.973Z,41.16
2019-04-22T00:34:44.049Z,41.15
2019-04-22T00:36:41.627Z,41.28
2019-04-22T00:38:44.335Z,42.4
2019-04-22T00:40:52.182Z,42.75
2019-04-22T00:42:50.200Z,42.75
2019-04-22T00:44:45.163Z,42.44
2019-04-22T00:46:45.690Z,42.26
2019-04-22T00:48:57.584Z,42.37
2019-04-22T00:52:50.827Z,42.78
2019-04-22T00:54:47.122Z,42.49
2019-04-22T00:56:40.602Z,42.35
2019-04-22T01:00:49.694Z,42.27
2019-04-22T01:02:49.716Z,42.61
2019-04-22T01:04:46.541Z,42.96
2019-04-22T01:06:38.543Z,42.6
2019-04-22T01:08:51.396Z,42.77
2019-04-22T01:10:49.489Z,43.03
2019-04-22T01:14:41.707Z,43.34
2019-04-22T01:16:43.033Z,43.06
2019-04-22T01:18:46.186Z,42.96
2019-04-22T01:21:00.491Z,43.03
2019-04-22T01:22:34.314Z,43.27
2019-04-22T01:24:32.739Z,43.69
2019-04-22T01:26:34.087Z,44.13
2019-04-22T01:28:30.185Z,44.74
2019-04-22T01:30:27.877Z,44.3
2019-04-22T01:32:26.217Z,44.2
2019-04-22T01:34:31.916Z,44.07
2019-04-22T01:36:38.218Z,43.85
2019-04-22T01:38:43.291Z,43.65
2019-04-22T01:40:42.920Z,43.97
2019-04-22T01:42:43.253Z,43.88
2019-04-22T01:44:38.636Z,43.84
2019-04-22T01:48:39.498Z,44.36
2019-04-22T01:50:36.843Z,44.23
2019-04-22T01:52:44.141Z,44.23
2019-04-22T01:54:45.435Z,44.01
2019-04-22T01:56:42.297Z,43.66
2019-04-22T01:58:36.632Z,43.63
2019-04-22T02:00:40.124Z,43.33
2019-04-22T02:02:35.380Z,43.24
2019-04-22T02:04:45.729Z,42.98
2019-04-22T02:06:35.157Z,42.58
2019-04-22T02:08:52.657Z,42.91
2019-04-22T02:10:42.141Z,43.02
2019-04-22T02:14:39.152Z,43.23
2019-04-22T02:18:42.721Z,42.86
2019-04-22T02:20:35.888Z,42.86
2019-04-22T02:24:39.687Z,42.9
2019-04-22T02:26:35.465Z,43.11
2019-04-22T02:28:40.075Z,43.13
2019-04-22T02:30:50.273Z,43.62
2019-04-22T02:32:48.618Z,43.72
2019-04-22T02:34:50.413Z,43.56
2019-04-22T02:40:44.401Z,43.21
2019-04-22T02:42:52.287Z,43.8
2019-04-22T02:44:42.969Z,43.74
2019-04-22T02:46:54.831Z,43.35
2019-04-22T02:50:36.647Z,43.75
2019-04-22T02:58:52.995Z,44.84
2019-04-22T03:00:38.189Z,44.24
2019-04-22T03:02:59.416Z,43.84
2019-04-22T03:04:31.834Z,43.78
2019-04-22T03:10:54.722Z,42.41
2019-04-22T03:12:29.145Z,42.59
2019-04-22T03:14:37.596Z,42.75
2019-04-22T03:18:41.988Z,42.89
2019-04-22T03:22:40.893Z,43.01
2019-04-22T03:26:31.766Z,43.06
2019-04-22T03:28:00.603Z,43.06
2019-04-22T03:34:15.374Z,42.49
2019-04-22T03:35:23.281Z,42.49
2019-04-22T03:38:41.455Z,43.69
2019-04-22T03:42:48.450Z,43.48
2019-04-22T03:46:30.061Z,43.5
2019-04-22T03:48:28.747Z,43.66
2019-04-22T03:58:28.619Z,43.74
2019-04-22T04:00:35.689Z,43.82
2019-04-22T04:02:46.958Z,43.81
2019-04-22T04:06:43.205Z,43.44
2019-04-22T04:08:33.438Z,43.42
2019-04-22T04:10:37.642Z,43.56
2019-04-22T04:16:31.607Z,43.62
2019-04-22T04:18:30.876Z,43.26
2019-04-22T04:20:32.272Z,43.08
2019-04-22T04:22:41.171Z,43.05
2019-04-22T04:24:48.518Z,43.45
2019-04-22T04:26:48.097Z,42.76
2019-04-22T04:28:43.419Z,42.77
2019-04-22T04:30:29.617Z,42.38
2019-04-22T04:34:43.412Z,41.79
2019-04-22T04:36:30.642Z,41.76
2019-04-22T04:38:23.850Z,41.73
2019-04-22T04:40:26.798Z,41.37
2019-04-22T04:42:32.946Z,41.23
2019-04-22T04:44:42.048Z,40.97
2019-04-22T04:46:36.155Z,40.8
2019-04-22T04:48:32.640Z,40.69
2019-04-22T04:50:18.443Z,40.58
2019-04-22T04:52:52.509Z,40.01
2019-04-22T04:54:30.616Z,39.5
2019-04-22T04:56:33.945Z,39.67
2019-04-22T04:58:34.937Z,39.1
2019-04-22T05:02:33.169Z,38.48
2019-04-22T05:06:36.690Z,38.18
2019-04-22T05:12:34.608Z,37.76
2019-04-22T05:14:24.715Z,37.68
2019-04-22T05:18:23.945Z,37.33
2019-04-22T05:26:26.187Z,36.52
2019-04-22T05:28:20.210Z,36.37
2019-04-22T05:32:17.491Z,35.48
2019-04-22T05:34:19.082Z,35.52
2019-04-22T05:36:13.079Z,35.27
2019-04-22T05:38:34.898Z,35.17
2019-04-22T05:42:13.984Z,34.82
2019-04-22T05:44:20.760Z,34.64
2019-04-22T05:46:09.805Z,34.4
2019-04-22T05:48:18.735Z,34.21
2019-04-22T05:50:13.046Z,34.12
2019-04-22T05:52:14.943Z,33.91
2019-04-22T05:54:17.316Z,33.76
2019-04-22T05:56:23.886Z,33.58
2019-04-22T05:58:16.648Z,33.62
2019-04-22T06:00:18.288Z,33.44
2019-04-22T06:04:11.315Z,32.36
2019-04-22T06:06:22.584Z,32.24
2019-04-22T06:08:10.275Z,32.03
2019-04-22T06:12:10.280Z,31.33
2019-04-22T06:14:15.300Z,30.9
2019-04-22T06:16:09.439Z,30.69
2019-04-22T06:18:16.199Z,30.39
2019-04-22T06:20:10.530Z,29.85
2019-04-22T06:22:18.332Z,29.12
2019-04-22T06:24:18.809Z,29.63
2019-04-22T06:28:25.225Z,28.31
2019-04-22T06:30:10.925Z,28.7
2019-04-22T06:36:08.612Z,28.28
2019-04-22T06:38:26.802Z,28.25
2019-04-22T06:40:16.526Z,28.21
2019-04-22T06:44:16.177Z,27.79
2019-04-22T06:46:08.121Z,27.7
2019-04-22T06:48:17.238Z,27.45
2019-04-22T06:50:08.039Z,27.34
2019-04-22T06:54:08.484Z,26.77
2019-04-22T06:56:04.516Z,25.37
2019-04-22T06:58:10.680Z,26.18
2019-04-22T07:00:14.338Z,26
2019-04-22T07:02:11.641Z,26.33
2019-04-22T07:04:03.329Z,26.3
2019-04-22T07:06:08.115Z,25.86
2019-04-22T07:08:26.807Z,25.01
2019-04-22T07:10:18.098Z,25.28
2019-04-22T07:12:12.037Z,25.68
2019-04-22T07:14:04.226Z,25.35
2019-04-22T07:22:15.169Z,24.86
2019-04-22T07:24:28.272Z,24.73
2019-04-22T07:28:05.203Z,24.79
2019-04-22T07:30:09.490Z,24.74
2019-04-22T07:32:06.773Z,24.74
2019-04-22T07:34:16.403Z,24.69
2019-04-22T07:38:10.882Z,24.47
2019-04-22T07:40:03.648Z,24.54
2019-04-22T07:42:05.236Z,24.22
2019-04-22T07:44:13.194Z,24.48
2019-04-22T07:46:11.634Z,24.39
2019-04-22T07:48:22.262Z,24.17
2019-04-22T07:50:17.029Z,24.1
2019-04-22T07:52:03.610Z,23.76
2019-04-22T07:54:10.896Z,23.68
2019-04-22T07:56:05.306Z,23.86
2019-04-22T07:58:10.304Z,24.04
2019-04-22T08:00:09.050Z,24.1
2019-04-22T08:02:01.979Z,24.04
2019-04-22T08:08:11.504Z,23.72
2019-04-22T08:11:58.105Z,23.52
2019-04-22T08:14:07.192Z,23.5
2019-04-22T08:16:06.262Z,23.45
2019-04-22T08:18:04.618Z,23.37
2019-04-22T08:20:09.143Z,22.85
2019-04-22T08:22:02.727Z,23.04
2019-04-22T08:24:04.542Z,22.93
2019-04-22T08:26:01.081Z,23.11
2019-04-22T08:28:03.745Z,23.02
2019-04-22T08:30:12.231Z,22.8
2019-04-22T08:32:05.217Z,23.04
2019-04-22T08:38:10.333Z,22.75
2019-04-22T08:40:08.849Z,22.73
2019-04-22T08:42:05.008Z,22.58
2019-04-22T08:44:17.394Z,22.92
2019-04-22T08:46:05.625Z,22.62
2019-04-22T08:48:01.669Z,22.77
2019-04-22T08:50:12.003Z,22.26
2019-04-22T08:52:16.319Z,22.26
2019-04-22T08:54:07.810Z,22.23
2019-04-22T08:56:21.890Z,21.88
2019-04-22T09:00:03.942Z,21.5
2019-04-22T09:02:09.308Z,21.4
2019-04-22T09:04:04.029Z,20.89
2019-04-22T09:06:06.446Z,20.43
2019-04-22T09:08:07.461Z,20.5
2019-04-22T09:10:03.400Z,20.15
2019-04-22T09:12:06.458Z,20.54
2019-04-22T09:14:06.179Z,20.69
2019-04-22T09:16:08.776Z,20.36
2019-04-22T09:18:05.745Z,19.95
2019-04-22T09:20:06.452Z,20.27
2019-04-22T09:22:07.969Z,20.17
2019-04-22T09:24:08.326Z,20.29
2019-04-22T09:26:03.467Z,20.41
2019-04-22T09:28:03.303Z,20.76
2019-04-22T09:30:09.093Z,20.27
2019-04-22T09:34:01.498Z,20.95
2019-04-22T09:36:12.798Z,21.14
2019-04-22T09:38:21.709Z,21.43
2019-04-22T09:40:04.643Z,20.38
2019-04-22T09:42:18.782Z,20.69
2019-04-22T09:44:19.092Z,20.81
2019-04-22T09:45:57.745Z,20.88
2019-04-22T09:50:03.353Z,20.58
2019-04-22T09:52:06.303Z,20.73
2019-04-22T09:54:05.994Z,20.79
2019-04-22T09:56:03.947Z,20.84
2019-04-22T09:58:06.637Z,20.84
2019-04-22T10:00:02.740Z,20.86
2019-04-22T10:04:01.640Z,20.26
2019-04-22T10:06:10.195Z,20.2
2019-04-22T10:08:14.835Z,20.11
2019-04-22T10:12:02.673Z,19.98
2019-04-22T10:16:02.408Z,19.84
2019-04-22T10:18:02.935Z,20.34
2019-04-22T10:20:03.967Z,20.63
2019-04-22T10:21:56.896Z,20.62
2019-04-22T10:26:08.454Z,20.59
2019-04-22T10:30:00.290Z,20.33
2019-04-22T10:32:00.768Z,20.22
2019-04-22T10:33:49.676Z,20.16
2019-04-22T10:35:35.527Z,19.65
2019-04-22T10:37:36.542Z,20.22
2019-04-22T10:39:43.874Z,19.94
2019-04-22T10:41:36.577Z,19.96
2019-04-22T10:43:36.976Z,19.54
2019-04-22T10:45:36.237Z,19.72
2019-04-22T10:47:36.006Z,19.31
2019-04-22T10:49:36.132Z,19.43
2019-04-22T10:51:34.929Z,19.61
2019-04-22T10:53:35.566Z,19.08
2019-04-22T10:55:35.125Z,19.57
2019-04-22T10:57:35.971Z,19.42
2019-04-22T11:01:38.396Z,19.44
2019-04-22T11:05:34.968Z,19.3
2019-04-22T11:07:42.093Z,19.45
2019-04-22T11:09:47.644Z,19.68
2019-04-22T11:11:46.641Z,19.77
2019-04-22T11:13:36.230Z,19.57
2019-04-22T11:15:34.902Z,19.67
2019-04-22T11:17:35.799Z,19.6
2019-04-22T11:19:37.335Z,19.7
2019-04-22T11:21:35.925Z,19.46
2019-04-22T11:23:34.562Z,19.58
2019-04-22T11:25:36.042Z,19.61
2019-04-22T11:27:34.959Z,19.58
2019-04-22T11:29:35.348Z,19.57
2019-04-22T11:31:34.609Z,19.91
2019-04-22T11:33:34.588Z,19.86
2019-04-22T11:35:35.364Z,19.81
2019-04-22T11:37:36.782Z,19.73
2019-04-22T11:39:36.564Z,19.88
2019-04-22T11:41:36.003Z,19.7
2019-04-22T11:45:35.422Z,19.63
2019-04-22T11:47:35.357Z,19.56
2019-04-22T11:49:34.286Z,19.79
2019-04-22T11:51:34.075Z,19.64
2019-04-22T11:53:34.583Z,19.6
2019-04-22T11:55:35.092Z,19.69
2019-04-22T11:57:35.008Z,19.65
2019-04-22T11:59:34.045Z,19.68
2019-04-22T12:01:35.001Z,19.45
2019-04-22T12:03:34.055Z,19.2
2019-04-22T12:05:34.382Z,19.11
2019-04-22T12:09:35.060Z,19
2019-04-22T12:11:34.509Z,18.78
2019-04-22T12:13:33.943Z,18.72
2019-04-22T12:15:35.194Z,18.42
2019-04-22T12:17:33.939Z,18.31
2019-04-22T12:19:35.254Z,17.92
2019-04-22T12:23:34.930Z,18.14
2019-04-22T12:25:43.415Z,16.87
2019-04-22T12:27:35.032Z,17.17
2019-04-22T12:29:35.141Z,16.65
2019-04-22T12:31:35.561Z,16.75
2019-04-22T12:33:35.092Z,16.4
2019-04-22T12:37:43.548Z,16.11
2019-04-22T12:41:35.949Z,15.72
2019-04-22T12:45:36.329Z,14.53
2019-04-22T12:51:36.841Z,14.38
2019-04-22T12:53:36.152Z,13.77
2019-04-22T12:55:35.975Z,13.58
2019-04-22T12:57:38.867Z,13.07
2019-04-22T12:59:37.390Z,12.8
2019-04-22T13:01:39.182Z,12.8
2019-04-22T13:03:38.197Z,12.71
2019-04-22T13:05:37.610Z,12.59
2019-04-22T13:07:37.990Z,12.71
2019-04-22T13:09:38.975Z,12.6
2019-04-22T13:11:38.897Z,12.6
2019-04-22T13:13:38.735Z,12.56
2019-04-22T13:15:39.198Z,12.61
2019-04-22T13:17:39.925Z,12.48
2019-04-22T13:21:40.575Z,11.98
2019-04-22T13:23:39.380Z,11.92
2019-04-22T13:25:40.923Z,12.08
2019-04-22T13:27:39.783Z,11.91
2019-04-22T13:29:41.204Z,11.49
2019-04-22T13:31:42.457Z,11.53
2019-04-22T13:35:41.643Z,10.96
2019-04-22T13:37:41.515Z,11.08
2019-04-22T13:39:42.880Z,10.82
2019-04-22T13:41:49.757Z,11.41
2019-04-22T13:43:44.983Z,11.46
2019-04-22T13:45:43.709Z,11.58
2019-04-22T13:48:01.527Z,11.81
2019-04-22T13:50:17.703Z,12.24
2019-04-22T13:54:36.584Z,12.71
2019-04-22T13:56:02.733Z,13.29
2019-04-22T13:57:58.277Z,13.98
2019-04-22T13:59:48.600Z,14.62
2019-04-22T14:03:44.754Z,14.65
2019-04-22T14:05:44.852Z,14.39
2019-04-22T14:15:44.856Z,13.3
2019-04-22T14:17:45.390Z,13.18
2019-04-22T14:21:47.488Z,13.38
2019-04-22T14:23:46.686Z,13.39
2019-04-22T14:25:46.393Z,13.47
2019-04-22T14:27:52.456Z,13.51
2019-04-22T14:29:45.630Z,13.13
2019-04-22T14:31:50.060Z,12.71
2019-04-22T14:35:46.613Z,12.44
2019-04-22T14:37:47.813Z,12.38
2019-04-22T14:39:48.138Z,12.56
2019-04-22T14:42:12.064Z,12.24
2019-04-22T14:44:47.229Z,12.66
2019-04-22T14:46:17.701Z,12.63
2019-04-22T14:48:15.560Z,12.61
2019-04-22T14:50:16.167Z,12.64
2019-04-22T14:55:48.635Z,12.73
2019-04-22T14:57:49.035Z,12.46
2019-04-22T14:59:48.499Z,12.31
2019-04-22T15:01:49.765Z,12.14
2019-04-22T15:03:50.325Z,12.26
2019-04-22T15:05:50.390Z,12.73
2019-04-22T15:07:49.907Z,13.3
2019-04-22T15:09:50.245Z,13.87
2019-04-22T15:12:05.020Z,14.19
2019-04-22T15:13:51.605Z,14.08
2019-04-22T15:15:52.907Z,14.17
2019-04-22T15:17:51.068Z,14.38
2019-04-22T15:19:50.229Z,14.57
2019-04-22T15:23:50.895Z,14.28
2019-04-22T15:29:51.722Z,14.62
2019-04-22T15:31:51.505Z,14.36
2019-04-22T15:33:52.312Z,14.48
2019-04-22T15:35:53.588Z,14.51
2019-04-22T15:39:54.993Z,14.48
2019-04-22T15:42:04.303Z,14.62
2019-04-22T15:43:52.222Z,14.68
2019-04-22T15:45:52.883Z,14.98
2019-04-22T15:47:52.435Z,15.12
2019-04-22T15:49:52.207Z,15.18
2019-04-22T15:51:55.358Z,15.41
2019-04-22T15:53:52.111Z,15.53
2019-04-22T15:55:52.552Z,15.77
2019-04-22T15:57:53.959Z,15.99
2019-04-22T16:00:08.224Z,16.28
2019-04-22T16:01:56.645Z,16.66
2019-04-22T16:03:52.573Z,16.96
2019-04-22T16:05:54.241Z,16.99
2019-04-22T16:07:55.014Z,17.21
2019-04-22T16:09:53.967Z,17.17
2019-04-22T16:11:54.050Z,17.49
2019-04-22T16:13:54.746Z,17.65
2019-04-22T16:15:54.311Z,17.75
2019-04-22T16:17:53.168Z,18.11
2019-04-22T16:19:53.327Z,18.62
2019-04-22T16:23:54.334Z,18.92
2019-04-22T16:25:53.782Z,19.26
2019-04-22T16:27:54.488Z,19.81
2019-04-22T16:29:52.909Z,19.83
2019-04-22T16:31:53.800Z,20.24
2019-04-22T16:33:54.374Z,20.39
2019-04-22T16:35:53.224Z,20.95
2019-04-22T16:37:54.960Z,21.39
2019-04-22T16:39:54.718Z,21.22
2019-04-22T16:41:52.907Z,21.81
2019-04-22T16:43:52.654Z,21.3
2019-04-22T16:45:53.776Z,22.04
2019-04-22T16:47:53.720Z,21.72
2019-04-22T16:49:52.810Z,21.75
2019-04-22T16:51:54.168Z,21.92
2019-04-22T16:53:53.932Z,22.29
2019-04-22T16:55:53.132Z,22.74
2019-04-22T16:57:52.971Z,22.62
2019-04-22T16:59:52.992Z,22.66
2019-04-22T17:01:52.883Z,22.92
2019-04-22T17:03:52.424Z,22.9
2019-04-22T17:05:52.126Z,23.47
2019-04-22T17:07:52.262Z,23.46
2019-04-22T17:09:52.205Z,23.46
2019-04-22T17:11:52.230Z,23.4
2019-04-22T17:13:53.042Z,23.59
2019-04-22T17:15:51.635Z,23.36
2019-04-22T17:17:51.775Z,24.09
2019-04-22T17:19:53.176Z,23.91
2019-04-22T17:21:51.277Z,23.69
2019-04-22T17:23:53.982Z,23.85
2019-04-22T17:25:52.485Z,23.88
2019-04-22T17:27:51.959Z,24.2
2019-04-22T17:29:52.386Z,24.05
2019-04-22T17:31:58.388Z,24.5
2019-04-22T17:33:52.888Z,24.24
2019-04-22T17:35:50.727Z,24.67
2019-04-22T17:38:03.055Z,24.76
2019-04-22T17:40:05.664Z,24.69
2019-04-22T17:42:08.361Z,24.92
2019-04-22T17:44:31.829Z,24.97
2019-04-22T17:46:10.811Z,25.64
2019-04-22T17:48:14.142Z,25.44
2019-04-22T17:50:13.338Z,25.59
2019-04-22T17:54:17.050Z,25.89
2019-04-22T17:56:13.802Z,25.8
2019-04-22T17:58:14.633Z,25.83
2019-04-22T18:00:06.844Z,26.37
2019-04-22T18:03:56.637Z,26.73
2019-04-22T18:05:56.338Z,27.33
2019-04-22T18:08:11.646Z,27.43
2019-04-22T18:10:28.845Z,27.42
2019-04-22T18:12:11.552Z,27.4
2019-04-22T18:14:26.116Z,27.38
2019-04-22T18:16:11.931Z,27.39
2019-04-22T18:18:12.509Z,27.75
2019-04-22T18:20:05.786Z,27.47
2019-04-22T18:22:02.269Z,28.1
2019-04-22T18:23:55.335Z,28.3
2019-04-22T18:26:05.669Z,27.94
2019-04-22T18:28:13.724Z,28.16
2019-04-22T18:30:03.895Z,28.29
2019-04-22T18:32:01.180Z,28.78
2019-04-22T18:34:04.402Z,28.87
2019-04-22T18:36:04.093Z,28.7
2019-04-22T18:38:18.167Z,28.99
2019-04-22T18:40:13.538Z,28.87
2019-04-22T18:42:03.671Z,29.29
2019-04-22T18:44:10.005Z,28.83
2019-04-22T18:46:12.696Z,28.79
2019-04-22T18:48:02.889Z,29.37
2019-04-22T18:50:02.820Z,29.94
2019-04-22T18:52:08.572Z,30
2019-04-22T18:54:13.487Z,30.05
2019-04-22T18:56:03.875Z,30.42
2019-04-22T18:58:02.641Z,30.23
2019-04-22T18:59:50.939Z,29.91
2019-04-22T19:01:46.275Z,30.39
2019-04-22T19:03:55.153Z,30
2019-04-22T19:06:13.430Z,30.12
2019-04-22T19:08:12.480Z,30.35
2019-04-22T19:10:10.494Z,30.12
2019-04-22T19:12:29.299Z,30.06
2019-04-22T19:18:14.829Z,30.28
2019-04-22T19:20:18.362Z,30.38
2019-04-22T19:22:03.456Z,30.27
2019-04-22T19:26:10.553Z,31.92
2019-04-22T19:28:11.530Z,30.99
2019-04-22T19:30:12.225Z,32.57
2019-04-22T19:32:01.934Z,31.58
2019-04-22T19:34:03.245Z,32.52
2019-04-22T19:36:10.771Z,32.49
2019-04-22T19:37:58.776Z,31.89
2019-04-22T19:40:09.603Z,32.92
2019-04-22T19:42:09.770Z,33
2019-04-22T19:44:08.156Z,32.53
2019-04-22T19:46:02.102Z,32.01
2019-04-22T19:50:11.637Z,31.9
2019-04-22T19:52:12.817Z,32.3
2019-04-22T19:54:01.448Z,32.03
2019-04-22T19:55:59.907Z,32.7
2019-04-22T19:58:00.000Z,32.12
2019-04-22T20:00:03.884Z,32.01
2019-04-22T20:02:03.844Z,31.81
2019-04-22T20:04:13.642Z,31.57
2019-04-22T20:06:01.304Z,31.73
2019-04-22T20:08:05.712Z,31.78
2019-04-22T20:10:07.185Z,32.48
2019-04-22T20:12:01.136Z,32.07
2019-04-22T20:14:10.725Z,32.11
2019-04-22T20:15:34.471Z,32.74
2019-04-22T20:15:55.157Z,32.74
2019-04-22T20:18:22.308Z,33.47
2019-04-22T20:20:02.288Z,32.94
2019-04-22T20:22:06.177Z,32.67
2019-04-22T20:23:51.740Z,32.55
2019-04-22T20:28:07.492Z,33.47
2019-04-22T20:32:07.574Z,33.88
2019-04-22T20:34:03.488Z,33.52
2019-04-22T20:36:07.656Z,33.26
2019-04-22T20:38:04.182Z,33.52
2019-04-22T20:40:02.419Z,33.41
2019-04-22T20:42:12.523Z,33.43
2019-04-22T20:44:04.676Z,33.78
2019-04-22T20:46:02.428Z,33.58
2019-04-22T20:47:51.201Z,33.82
2019-04-22T20:49:58.741Z,33.69
2019-04-22T20:52:20.322Z,33.75
2019-04-22T20:54:02.870Z,34.77
2019-04-22T20:56:00.756Z,34.12
2019-04-22T20:58:00.822Z,34.16
2019-04-22T20:59:55.590Z,33.92
2019-04-22T21:01:58.069Z,33.99
2019-04-22T21:03:46.946Z,34.41
2019-04-22T21:05:48.189Z,34.45
2019-04-22T21:08:05.275Z,34.51
2019-04-22T21:09:55.170Z,34.45
2019-04-22T21:11:51.911Z,34.72
2019-04-22T21:13:57.339Z,36.23
2019-04-22T21:16:04.327Z,35.06
2019-04-22T21:17:56.683Z,34.83
2019-04-22T21:22:00.188Z,35.17
2019-04-22T21:23:51.394Z,34.75
2019-04-22T21:25:57.225Z,35.27
2019-04-22T21:27:56.852Z,34.86
2019-04-22T21:29:49.249Z,34.82
2019-04-22T21:34:04.177Z,35.68
2019-04-22T21:38:04.387Z,35.08
2019-04-22T21:39:51.898Z,35.98
2019-04-22T21:41:53.081Z,35.86
2019-04-22T21:43:58.026Z,35.52
2019-04-22T21:45:57.256Z,36.27
2019-04-22T21:48:05.240Z,36.37
2019-04-22T21:51:55.251Z,36.07
2019-04-22T21:56:04.345Z,35.94
2019-04-22T21:58:02.913Z,35.8
2019-04-22T21:59:57.932Z,36.31
2019-04-22T22:02:00.516Z,35.88
2019-04-22T22:03:57.015Z,35.75
2019-04-22T22:05:44.300Z,36.62
2019-04-22T22:07:35.211Z,35.97
2019-04-22T22:09:54.444Z,36.24
2019-04-22T22:11:49.396Z,35.91
2019-04-22T22:13:50.189Z,36.05
2019-04-22T22:15:52.091Z,36.54
2019-04-22T22:17:51.149Z,36.33
2019-04-22T22:19:49.563Z,35.99
2019-04-22T22:21:58.664Z,36.62
2019-04-22T22:23:59.486Z,36.08
2019-04-22T22:25:50.705Z,35.9
2019-04-22T22:27:50.551Z,36.45
2019-04-22T22:30:16.407Z,36.55
2019-04-22T22:31:58.069Z,36.16
2019-04-22T22:33:51.458Z,36.32
2019-04-22T22:35:57.345Z,36.21
2019-04-22T22:37:50.687Z,36.29
2019-04-22T22:39:39.216Z,36.88
2019-04-22T22:41:30.219Z,36.83
2019-04-22T22:43:35.827Z,36.88
2019-04-22T22:45:37.196Z,36.47
2019-04-22T22:47:45.636Z,36.52
2019-04-22T22:49:54.915Z,36.42
2019-04-22T22:52:02.313Z,36.58
2019-04-22T22:53:51.247Z,36.71
2019-04-22T22:55:52.096Z,36.86
2019-04-22T22:57:49.875Z,37.04
2019-04-22T22:59:50.078Z,36.99
2019-04-22T23:02:00.189Z,37.14
2019-04-22T23:05:54.832Z,38.06
2019-04-22T23:07:55.467Z,37.14
2019-04-22T23:09:50.386Z,37.46
2019-04-22T23:15:42.248Z,37.77
2019-04-22T23:17:30.025Z,37.93
2019-04-22T23:19:26.223Z,37.66
2019-04-22T23:23:43.606Z,38.17
2019-04-22T23:25:49.980Z,38.39
2019-04-22T23:27:44.518Z,38.45
2019-04-22T23:29:38.367Z,38.4
2019-04-22T23:33:43.897Z,38.4
2019-04-22T23:35:36.963Z,38.75
2019-04-22T23:37:39.554Z,38.16
2019-04-22T23:39:48.541Z,38.51
2019-04-22T23:41:46.249Z,38.48
2019-04-22T23:43:42.701Z,38.84
2019-04-22T23:45:40.248Z,38.58
2019-04-22T23:47:31.239Z,38.79
2019-04-22T23:49:32.628Z,38.8
2019-04-22T23:51:41.902Z,38.74
2019-04-22T23:55:47.598Z,38.88
2019-04-22T23:57:41.878Z,39.3
2019-04-22T23:59:57.092Z,39.07
